Time;durP1;ratioP1;P1;durP2;ratioP2;P2;SDS_P1;SDS_P2;PMS_P1;PMS_P2;Temp;Humidity;BMP_temperature;BMP_pressure;BME280_temperature;BME280_humidity;BME280_pressure;Samples;Min_cycle;Max_cycle;Signal;HPM_P1;HPM_P2
2022/04/17 00:00:48;;;;;;;5.05;3.38;;;;;;;;;;6217304;23;20179;-65
2022/04/17 00:03:14;;;;;;;6.28;5.50;;;;;;;;;;6217124;23;20164;-64
2022/04/17 00:05:40;;;;;;;4.32;3.22;;;;;;;;;;6217503;23;20156;-65
2022/04/17 00:08:06;;;;;;;2.85;2.33;;;;;;;;;;6217111;23;20439;-65
2022/04/17 00:10:32;;;;;;;4.78;3.92;;;;;;;;;;6216983;23;20163;-65
2022/04/17 00:12:58;;;;;;;7.07;5.40;;;;;;;;;;6217025;23;20224;-65
2022/04/17 00:15:24;;;;;;;3.97;3.17;;;;;;;;;;6217078;23;20227;-65
2022/04/17 00:17:50;;;;;;;3.20;2.78;;;;;;;;;;6217295;23;20195;-65
2022/04/17 00:20:17;;;;;;;3.83;2.63;;;;;;;;;;6217221;23;20191;-65
2022/04/17 00:22:43;;;;;;;6.13;4.80;;;;;;;;;;6216939;23;20175;-65
2022/04/17 00:25:09;;;;;;;6.55;5.40;;;;;;;;;;6216937;23;20141;-65
2022/04/17 00:27:35;;;;;;;7.32;5.13;;;;;;;;;;6217192;23;20199;-65
2022/04/17 00:30:02;;;;;;;3.42;2.70;;;;;;;;;;6217487;23;20264;-65
2022/04/17 00:32:30;;;;;;;3.20;2.72;;;;;;;;;;6217131;23;20145;-65
2022/04/17 00:34:56;;;;;;;4.20;2.85;;;;;;;;;;6216960;23;20486;-65
2022/04/17 00:37:22;;;;;;;4.20;3.80;;;;;;;;;;6216832;23;20141;-65
2022/04/17 00:39:48;;;;;;;5.45;4.20;;;;;;;;;;6216924;23;20145;-66
2022/04/17 00:42:13;;;;;;;6.03;4.82;;;;;;;;;;6216795;23;20152;-65
2022/04/17 00:44:39;;;;;;;5.38;4.85;;;;;;;;;;6217169;23;20552;-66
2022/04/17 00:47:05;;;;;;;5.97;5.18;;;;;;;;;;6216799;23;20438;-66
2022/04/17 00:49:32;;;;;;;3.33;3.00;;;;;;;;;;6217087;23;20207;-66
2022/04/17 00:51:58;;;;;;;4.35;3.65;;;;;;;;;;6216820;23;20164;-66
2022/04/17 00:54:25;;;;;;;6.40;4.90;;;;;;;;;;6217145;23;20517;-65
2022/04/17 00:56:51;;;;;;;3.47;2.80;;;;;;;;;;6217084;23;20214;-65
2022/04/17 00:59:17;;;;;;;2.85;2.30;;;;;;;;;;6217289;23;20152;-65
2022/04/17 01:01:43;;;;;;;2.72;2.28;;;;;;;;;;6216629;23;20141;-65
2022/04/17 01:04:09;;;;;;;6.78;4.20;;;;;;;;;;6216420;23;20589;-65
2022/04/17 01:06:38;;;;;;;6.00;4.60;;;;;;;;;;6216537;23;20203;-65
2022/04/17 01:09:04;;;;;;;5.53;4.80;;;;;;;;;;6216653;23;20137;-65
2022/04/17 01:11:30;;;;;;;5.03;4.30;;;;;;;;;;6216271;23;20152;-66
2022/04/17 01:13:56;;;;;;;5.00;4.47;;;;;;;;;;6216856;23;20176;-66
2022/04/17 01:16:23;;;;;;;5.85;4.40;;;;;;;;;;6216462;23;20144;-65
2022/04/17 01:19:00;;;;;;;5.93;4.95;;;;;;;;;;6216597;23;20327;-66
2022/04/17 01:21:27;;;;;;;6.60;4.93;;;;;;;;;;6216608;23;20145;-66
2022/04/17 01:26:57;;;;;;;7.90;5.50;;;;;;;;;;6216506;23;20148;-66
2022/04/17 01:29:27;;;;;;;7.90;5.45;;;;;;;;;;6216814;23;20129;-66
2022/04/17 01:31:54;;;;;;;6.53;5.22;;;;;;;;;;6217805;23;20160;-65
2022/04/17 01:34:21;;;;;;;8.00;5.53;;;;;;;;;;6218682;23;20160;-66
2022/04/17 01:36:49;;;;;;;6.95;5.57;;;;;;;;;;6216442;23;20141;-66
2022/04/17 01:39:15;;;;;;;7.60;5.75;;;;;;;;;;6216257;23;20450;-66
2022/04/17 01:41:41;;;;;;;7.15;6.38;;;;;;;;;;6216250;23;20137;-66
2022/04/17 01:44:07;;;;;;;7.28;5.85;;;;;;;;;;6216104;23;20179;-66
2022/04/17 01:46:34;;;;;;;6.13;5.00;;;;;;;;;;6216106;23;20137;-65
2022/04/17 01:49:01;;;;;;;5.93;5.10;;;;;;;;;;6216114;23;20151;-65
2022/04/17 01:51:27;;;;;;;6.82;4.78;;;;;;;;;;6216601;23;20168;-65
2022/04/17 01:53:53;;;;;;;5.70;4.18;;;;;;;;;;6216244;23;20141;-66
2022/04/17 01:56:18;;;;;;;5.93;3.88;;;;;;;;;;6216148;23;20224;-65
2022/04/17 01:58:44;;;;;;;4.40;3.97;;;;;;;;;;6189847;23;20550;-66
2022/04/17 02:01:10;;;;;;;7.10;5.18;;;;;;;;;;6216393;23;20141;-65
2022/04/17 02:03:36;;;;;;;7.13;4.97;;;;;;;;;;6216576;23;20169;-65
2022/04/17 02:06:02;;;;;;;7.63;5.18;;;;;;;;;;6189868;23;20168;-65
2022/04/17 02:08:28;;;;;;;4.53;3.58;;;;;;;;;;6216049;23;20141;-65
2022/04/17 02:10:55;;;;;;;4.53;3.65;;;;;;;;;;6216476;23;20157;-65
2022/04/17 02:13:21;;;;;;;5.28;4.00;;;;;;;;;;6216127;23;20625;-65
2022/04/17 02:15:49;;;;;;;7.28;4.28;;;;;;;;;;6190378;23;20253;-65
2022/04/17 02:18:16;;;;;;;4.32;3.92;;;;;;;;;;6216699;23;20153;-65
2022/04/17 02:20:42;;;;;;;5.55;4.47;;;;;;;;;;6216395;23;20156;-65
2022/04/17 02:23:08;;;;;;;5.57;4.78;;;;;;;;;;6216353;23;20464;-65
2022/04/17 02:25:34;;;;;;;5.13;4.15;;;;;;;;;;6216534;23;20445;-65
2022/04/17 02:28:00;;;;;;;5.75;4.20;;;;;;;;;;6216037;23;20149;-65
2022/04/17 02:30:25;;;;;;;4.50;4.05;;;;;;;;;;6216246;23;20141;-65
2022/04/17 02:32:51;;;;;;;4.97;3.90;;;;;;;;;;6216465;23;20441;-65
2022/04/17 02:35:17;;;;;;;6.32;4.28;;;;;;;;;;6216448;23;20148;-65
2022/04/17 02:37:43;;;;;;;6.15;4.20;;;;;;;;;;6216063;23;20511;-65
2022/04/17 02:40:09;;;;;;;6.90;4.40;;;;;;;;;;6216088;23;20220;-65
2022/04/17 02:42:35;;;;;;;5.68;4.53;;;;;;;;;;6216176;23;20168;-66
2022/04/17 02:45:01;;;;;;;5.75;3.88;;;;;;;;;;6215858;23;20144;-66
2022/04/17 02:47:42;;;;;;;5.68;4.50;;;;;;;;;;6216318;23;20148;-66
2022/04/17 02:50:09;;;;;;;4.65;3.95;;;;;;;;;;6215956;23;20537;-65
2022/04/17 02:52:35;;;;;;;4.85;3.70;;;;;;;;;;6216059;23;20156;-65
2022/04/17 02:55:01;;;;;;;4.60;4.20;;;;;;;;;;6215824;23;20141;-65
2022/04/17 02:57:28;;;;;;;4.82;3.47;;;;;;;;;;6216299;23;20177;-65
2022/04/17 02:59:53;;;;;;;4.03;3.00;;;;;;;;;;6216208;23;20176;-66
2022/04/17 03:07:49;;;;;;;5.55;3.38;;;;;;;;;;6215984;23;20625;-66
2022/04/17 03:10:15;;;;;;;4.28;3.55;;;;;;;;;;6215955;23;20157;-65
2022/04/17 03:12:41;;;;;;;4.38;3.70;;;;;;;;;;6216159;23;20148;-65
2022/04/17 03:15:07;;;;;;;7.43;4.90;;;;;;;;;;6216189;23;20152;-65
2022/04/17 03:17:33;;;;;;;5.22;4.03;;;;;;;;;;6215863;23;20141;-65
2022/04/17 03:19:59;;;;;;;9.63;6.25;;;;;;;;;;6215733;23;20155;-64
2022/04/17 03:22:28;;;;;;;8.23;6.10;;;;;;;;;;6216205;23;20172;-65
2022/04/17 03:24:54;;;;;;;7.20;5.68;;;;;;;;;;6216260;23;20168;-65
2022/04/17 03:27:20;;;;;;;8.88;6.90;;;;;;;;;;6215851;23;20443;-65
2022/04/17 03:29:46;;;;;;;6.85;5.20;;;;;;;;;;6216007;23;20152;-65
2022/04/17 03:32:11;;;;;;;8.73;6.50;;;;;;;;;;6215856;23;20141;-65
2022/04/17 03:34:37;;;;;;;7.25;5.88;;;;;;;;;;6217870;23;20566;-65
2022/04/17 03:37:04;;;;;;;7.03;6.10;;;;;;;;;;6217536;23;20558;-65
2022/04/17 03:39:31;;;;;;;6.50;5.07;;;;;;;;;;6217413;23;20141;-65
2022/04/17 03:41:57;;;;;;;6.53;4.95;;;;;;;;;;6217495;23;20522;-65
2022/04/17 03:44:23;;;;;;;8.48;5.03;;;;;;;;;;6217248;23;20214;-65
2022/04/17 03:46:49;;;;;;;7.10;5.50;;;;;;;;;;6217397;23;20152;-65
2022/04/17 03:49:15;;;;;;;7.35;5.30;;;;;;;;;;6217371;23;20137;-65
2022/04/17 03:51:41;;;;;;;6.35;5.13;;;;;;;;;;6217385;23;20141;-65
2022/04/17 03:54:07;;;;;;;9.13;5.68;;;;;;;;;;6217317;23;20140;-66
2022/04/17 03:56:33;;;;;;;7.40;5.57;;;;;;;;;;6217437;23;20152;-66
2022/04/17 03:59:01;;;;;;;8.52;5.47;;;;;;;;;;6217386;23;20569;-66
2022/04/17 04:01:27;;;;;;;7.10;5.47;;;;;;;;;;6217294;23;20592;-66
2022/04/17 04:03:56;;;;;;;7.22;5.25;;;;;;;;;;6217377;23;20164;-66
2022/04/17 04:06:22;;;;;;;8.02;5.90;;;;;;;;;;6217450;23;20216;-66
2022/04/17 04:08:51;;;;;;;8.13;5.85;;;;;;;;;;6190905;23;20185;-66
2022/04/17 04:11:20;;;;;;;6.35;5.10;;;;;;;;;;6217371;23;20157;-65
2022/04/17 04:13:46;;;;;;;8.35;5.53;;;;;;;;;;6217232;23;20140;-65
2022/04/17 04:16:12;;;;;;;8.30;6.57;;;;;;;;;;6217291;23;20141;-66
2022/04/17 04:18:38;;;;;;;7.25;5.93;;;;;;;;;;6217997;23;20149;-65
2022/04/17 04:21:04;;;;;;;7.70;5.00;;;;;;;;;;6217566;23;20141;-65
2022/04/17 04:23:34;;;;;;;8.73;6.22;;;;;;;;;;6217187;23;20267;-65
2022/04/17 04:26:00;;;;;;;9.10;5.72;;;;;;;;;;6217364;23;20145;-65
2022/04/17 04:28:38;;;;;;;5.55;3.85;;;;;;;;;;6190751;23;20168;-65
2022/04/17 04:31:09;;;;;;;6.50;3.83;;;;;;;;;;6217077;23;20518;-65
2022/04/17 04:33:36;;;;;;;6.18;4.45;;;;;;;;;;6217271;23;20542;-66
2022/04/17 04:36:04;;;;;;;6.15;4.55;;;;;;;;;;6190793;23;20232;-66
2022/04/17 04:38:30;;;;;;;5.97;4.53;;;;;;;;;;6217577;23;20427;-65
2022/04/17 04:40:56;;;;;;;6.00;4.32;;;;;;;;;;6216908;23;20545;-65
2022/04/17 04:43:22;;;;;;;5.68;4.60;;;;;;;;;;6217005;23;20164;-65
2022/04/17 04:46:06;;;;;;;7.10;4.13;;;;;;;;;;6216594;23;20141;-65
2022/04/17 04:51:17;;;;;;;5.50;3.75;;;;;;;;;;6217033;23;20144;-65
2022/04/17 04:53:43;;;;;;;7.60;4.05;;;;;;;;;;6216908;23;20224;-65
2022/04/17 04:56:09;;;;;;;6.60;4.68;;;;;;;;;;6216743;23;20141;-66
2022/04/17 04:58:36;;;;;;;6.45;4.07;;;;;;;;;;6216844;23;20286;-64
2022/04/17 05:01:02;;;;;;;6.75;4.55;;;;;;;;;;6216892;23;20583;-65
2022/04/17 05:03:27;;;;;;;8.18;5.15;;;;;;;;;;6216589;23;20598;-66
2022/04/17 05:05:53;;;;;;;8.00;4.45;;;;;;;;;;6216845;23;20191;-66
2022/04/17 05:08:19;;;;;;;9.10;4.55;;;;;;;;;;6216785;23;20141;-66
2022/04/17 05:10:46;;;;;;;7.93;4.25;;;;;;;;;;6216527;23;20156;-65
2022/04/17 05:13:12;;;;;;;4.70;2.80;;;;;;;;;;6216575;23;20164;-66
2022/04/17 05:15:38;;;;;;;3.60;2.10;;;;;;;;;;6216574;23;20148;-65
2022/04/17 05:18:04;;;;;;;5.75;3.40;;;;;;;;;;6216729;23;20145;-65
2022/04/17 05:20:33;;;;;;;8.32;5.05;;;;;;;;;;6219741;23;20228;-66
2022/04/17 05:23:18;;;;;;;6.45;4.47;;;;;;;;;;6216752;23;20226;-65
2022/04/17 05:25:44;;;;;;;6.95;4.18;;;;;;;;;;6216447;23;20398;-65
2022/04/17 05:28:10;;;;;;;7.35;4.53;;;;;;;;;;6216498;23;20145;-65
2022/04/17 05:30:36;;;;;;;9.15;4.68;;;;;;;;;;6216788;23;20593;-66
2022/04/17 05:33:02;;;;;;;3.53;1.80;;;;;;;;;;6216493;23;20152;-65
2022/04/17 05:35:27;;;;;;;2.10;1.42;;;;;;;;;;6216414;23;20150;-65
2022/04/17 05:37:53;;;;;;;4.20;1.67;;;;;;;;;;6216468;23;20137;-65
2022/04/17 05:40:19;;;;;;;5.63;3.22;;;;;;;;;;6216318;23;20180;-65
2022/04/17 05:42:45;;;;;;;6.43;3.72;;;;;;;;;;6216268;23;20183;-65
2022/04/17 05:45:11;;;;;;;3.30;2.20;;;;;;;;;;6216219;23;20203;-65
2022/04/17 05:47:37;;;;;;;2.40;2.05;;;;;;;;;;6216212;23;20220;-66
2022/04/17 05:50:05;;;;;;;2.38;1.88;;;;;;;;;;6216143;23;20148;-65
2022/04/17 05:52:31;;;;;;;3.97;2.03;;;;;;;;;;6216649;23;20148;-65
2022/04/17 05:54:57;;;;;;;2.30;2.05;;;;;;;;;;6216365;23;20512;-66
2022/04/17 05:57:23;;;;;;;2.13;1.70;;;;;;;;;;6215761;23;20141;-65
2022/04/17 05:59:49;;;;;;;2.63;1.98;;;;;;;;;;6216492;23;20164;-66
2022/04/17 06:02:15;;;;;;;3.03;1.90;;;;;;;;;;6216008;23;20149;-65
2022/04/17 06:04:41;;;;;;;3.85;1.90;;;;;;;;;;6216716;23;20176;-65
2022/04/17 06:07:07;;;;;;;3.72;2.63;;;;;;;;;;6217008;23;20152;-65
2022/04/17 06:09:33;;;;;;;3.28;2.20;;;;;;;;;;6217102;23;20195;-65
2022/04/17 06:11:59;;;;;;;2.40;1.85;;;;;;;;;;6217153;23;20129;-65
2022/04/17 06:14:25;;;;;;;4.43;2.10;;;;;;;;;;6217608;23;20175;-64
2022/04/17 06:16:50;;;;;;;4.07;2.00;;;;;;;;;;6217339;23;20207;-65
2022/04/17 06:19:17;;;;;;;3.55;1.90;;;;;;;;;;6216214;23;20449;-65
2022/04/17 06:21:43;;;;;;;4.82;2.00;;;;;;;;;;6216631;23;20141;-65
2022/04/17 06:24:09;;;;;;;4.03;1.80;;;;;;;;;;6216374;23;20217;-65
2022/04/17 06:26:35;;;;;;;6.88;3.13;;;;;;;;;;6216551;23;20220;-65
2022/04/17 06:29:05;;;;;;;4.35;2.67;;;;;;;;;;6217191;23;20141;-66
2022/04/17 06:31:31;;;;;;;3.65;2.28;;;;;;;;;;6216192;23;20160;-65
2022/04/17 06:33:57;;;;;;;4.30;2.95;;;;;;;;;;6190317;23;20145;-65
2022/04/17 06:36:23;;;;;;;4.53;2.63;;;;;;;;;;6217451;23;20527;-65
2022/04/17 06:38:48;;;;;;;3.10;2.55;;;;;;;;;;6217164;23;20145;-65
2022/04/17 06:41:14;;;;;;;3.78;2.60;;;;;;;;;;6190748;23;20365;-64
2022/04/17 06:43:40;;;;;;;4.22;2.55;;;;;;;;;;6217931;23;20169;-65
2022/04/17 06:46:06;;;;;;;3.42;2.83;;;;;;;;;;6216561;23;20141;-66
2022/04/17 06:48:32;;;;;;;4.13;3.10;;;;;;;;;;6216178;23;20600;-65
2022/04/17 06:50:58;;;;;;;3.42;2.67;;;;;;;;;;6216178;23;20194;-64
2022/04/17 06:53:24;;;;;;;2.70;2.28;;;;;;;;;;6216077;23;20215;-63
2022/04/17 06:55:52;;;;;;;3.10;2.42;;;;;;;;;;6216677;23;20566;-64
2022/04/17 06:58:18;;;;;;;2.85;2.20;;;;;;;;;;6216798;23;20160;-65
2022/04/17 07:00:45;;;;;;;5.63;3.17;;;;;;;;;;6217287;23;20141;-64
2022/04/17 07:03:11;;;;;;;3.97;3.58;;;;;;;;;;6217169;23;20173;-64
2022/04/17 07:05:37;;;;;;;4.88;3.20;;;;;;;;;;6216525;23;20151;-64
2022/04/17 07:08:04;;;;;;;4.32;2.53;;;;;;;;;;6216371;23;20629;-64
2022/04/17 07:10:31;;;;;;;4.05;2.80;;;;;;;;;;6217766;23;20157;-66
2022/04/17 07:12:57;;;;;;;5.65;3.50;;;;;;;;;;6217735;23;20145;-64
2022/04/17 07:15:27;;;;;;;4.07;3.50;;;;;;;;;;6219003;23;20395;-65
2022/04/17 07:17:53;;;;;;;4.68;3.53;;;;;;;;;;6217720;23;20156;-64
2022/04/17 07:20:20;;;;;;;4.28;3.88;;;;;;;;;;6217930;23;20141;-64
2022/04/17 07:22:47;;;;;;;5.38;3.60;;;;;;;;;;6217588;23;20165;-64
2022/04/17 07:25:13;;;;;;;4.30;3.72;;;;;;;;;;6217768;23;20141;-65
2022/04/17 07:27:40;;;;;;;4.60;3.90;;;;;;;;;;6217606;23;20448;-65
2022/04/17 07:30:13;;;;;;;5.22;4.15;;;;;;;;;;6217460;23;20176;-66
2022/04/17 07:32:43;;;;;;;5.20;3.45;;;;;;;;;;6217659;23;20141;-65
2022/04/17 07:35:09;;;;;;;3.53;3.13;;;;;;;;;;6217694;23;20580;-65
2022/04/17 07:37:36;;;;;;;3.72;3.10;;;;;;;;;;6217698;23;20155;-65
2022/04/17 07:40:09;;;;;;;4.00;3.45;;;;;;;;;;6218617;23;20163;-65
2022/04/17 07:42:34;;;;;;;3.30;3.00;;;;;;;;;;6217437;23;20157;-65
2022/04/17 07:45:00;;;;;;;2.40;2.20;;;;;;;;;;6217847;23;20151;-65
2022/04/17 07:47:26;;;;;;;3.53;2.85;;;;;;;;;;6217432;23;20611;-65
2022/04/17 07:49:52;;;;;;;2.63;2.40;;;;;;;;;;6217417;23;20137;-65
2022/04/17 07:52:18;;;;;;;2.15;1.90;;;;;;;;;;6217187;23;20144;-66
2022/04/17 07:54:44;;;;;;;3.08;2.10;;;;;;;;;;6217908;23;20148;-65
2022/04/17 07:57:14;;;;;;;2.50;2.05;;;;;;;;;;6217899;23;20207;-65
2022/04/17 07:59:40;;;;;;;2.10;1.90;;;;;;;;;;6217896;23;20176;-65
2022/04/17 08:02:21;;;;;;;2.67;2.00;;;;;;;;;;6217658;23;20216;-65
2022/04/17 08:04:47;;;;;;;2.88;2.22;;;;;;;;;;6217862;23;20129;-65
2022/04/17 08:07:13;;;;;;;2.80;2.08;;;;;;;;;;6218138;23;20435;-64
2022/04/17 08:09:39;;;;;;;2.65;1.70;;;;;;;;;;6217319;23;20455;-64
2022/04/17 08:12:05;;;;;;;1.80;1.70;;;;;;;;;;6217519;23;20145;-64
2022/04/17 08:14:31;;;;;;;1.98;1.80;;;;;;;;;;6217767;23;20155;-64
2022/04/17 08:16:57;;;;;;;3.22;2.17;;;;;;;;;;6217528;23;20159;-65
2022/04/17 08:19:24;;;;;;;3.28;2.40;;;;;;;;;;6217080;23;20145;-64
2022/04/17 08:21:50;;;;;;;3.13;1.92;;;;;;;;;;6217219;23;20840;-64
2022/04/17 08:24:16;;;;;;;5.95;2.30;;;;;;;;;;6217097;23;20202;-65
2022/04/17 08:26:42;;;;;;;2.63;2.10;;;;;;;;;;6217399;23;20279;-65
2022/04/17 08:29:09;;;;;;;2.60;2.22;;;;;;;;;;6217298;23;20137;-65
2022/04/17 08:31:35;;;;;;;2.38;2.03;;;;;;;;;;6217716;23;20201;-65
2022/04/17 08:34:01;;;;;;;2.90;2.10;;;;;;;;;;6217608;23;20141;-65
2022/04/17 08:36:27;;;;;;;2.85;2.30;;;;;;;;;;6217554;23;20207;-66
2022/04/17 08:38:53;;;;;;;3.03;2.60;;;;;;;;;;6217425;23;20557;-66
2022/04/17 08:41:20;;;;;;;4.07;2.95;;;;;;;;;;6217136;23;20141;-66
2022/04/17 08:43:46;;;;;;;3.03;2.58;;;;;;;;;;6216751;23;20603;-66
2022/04/17 08:46:12;;;;;;;3.97;2.75;;;;;;;;;;6217225;23;20145;-66
2022/04/17 08:48:38;;;;;;;3.03;2.35;;;;;;;;;;6216920;23;20152;-65
2022/04/17 08:51:08;;;;;;;4.05;2.25;;;;;;;;;;6216953;23;20137;-65
2022/04/17 08:53:34;;;;;;;4.38;2.65;;;;;;;;;;6217065;23;20145;-66
2022/04/17 08:56:01;;;;;;;4.50;3.10;;;;;;;;;;6217175;23;20231;-65
2022/04/17 08:58:27;;;;;;;4.13;3.53;;;;;;;;;;6216903;23;20236;-65
2022/04/17 09:00:53;;;;;;;5.55;3.63;;;;;;;;;;6217021;23;20144;-65
2022/04/17 09:03:19;;;;;;;3.42;3.00;;;;;;;;;;6217118;23;20577;-65
2022/04/17 09:05:45;;;;;;;4.65;3.45;;;;;;;;;;6217612;23;20444;-65
2022/04/17 09:08:15;;;;;;;3.75;3.03;;;;;;;;;;6216958;23;20152;-65
2022/04/17 09:10:41;;;;;;;5.15;3.63;;;;;;;;;;6217046;23;20508;-64
2022/04/17 09:13:07;;;;;;;5.72;4.13;;;;;;;;;;6217487;23;20149;-64
2022/04/17 09:15:34;;;;;;;6.10;3.42;;;;;;;;;;6216684;23;20210;-64
2022/04/17 09:18:00;;;;;;;5.68;3.90;;;;;;;;;;6216977;23;20195;-64
2022/04/17 09:20:27;;;;;;;4.43;3.60;;;;;;;;;;6216540;23;20553;-65
2022/04/17 09:22:54;;;;;;;4.50;3.72;;;;;;;;;;6216417;23;20585;-65
2022/04/17 09:25:24;;;;;;;4.75;3.97;;;;;;;;;;6217190;23;20224;-65
2022/04/17 09:27:57;;;;;;;6.43;4.20;;;;;;;;;;6216652;23;20220;-65
2022/04/17 09:30:24;;;;;;;5.88;4.45;;;;;;;;;;6216626;23;20152;-65
2022/04/17 09:32:53;;;;;;;6.35;4.60;;;;;;;;;;6216509;23;20179;-65
2022/04/17 09:35:23;;;;;;;5.97;4.28;;;;;;;;;;6216484;23;20206;-65
2022/04/17 09:37:49;;;;;;;6.05;4.13;;;;;;;;;;6216722;23;20314;-65
2022/04/17 09:40:18;;;;;;;4.15;3.50;;;;;;;;;;6216905;23;20148;-65
2022/04/17 09:42:47;;;;;;;3.95;3.30;;;;;;;;;;6216941;23;20172;-65
2022/04/17 09:45:13;;;;;;;4.38;3.00;;;;;;;;;;6216640;23;20613;-65
2022/04/17 09:47:39;;;;;;;3.47;2.65;;;;;;;;;;6216512;23;20623;-65
2022/04/17 09:50:06;;;;;;;3.95;3.10;;;;;;;;;;6217404;23;20141;-65
2022/04/17 09:52:44;;;;;;;5.72;3.35;;;;;;;;;;6216339;23;20549;-65
2022/04/17 09:55:10;;;;;;;5.10;3.28;;;;;;;;;;6216380;23;20452;-65
2022/04/17 09:57:45;;;;;;;3.80;2.80;;;;;;;;;;6216803;23;20141;-65
2022/04/17 10:00:12;;;;;;;4.10;2.85;;;;;;;;;;6216414;23;20441;-65
2022/04/17 10:02:39;;;;;;;2.95;2.45;;;;;;;;;;6216107;23;20168;-65
2022/04/17 10:05:06;;;;;;;4.82;2.92;;;;;;;;;;6216793;23;20280;-65
2022/04/17 10:07:32;;;;;;;3.42;2.60;;;;;;;;;;6216621;23;20141;-65
2022/04/17 10:09:58;;;;;;;3.75;2.50;;;;;;;;;;6216265;23;20456;-65
2022/04/17 10:12:25;;;;;;;2.72;2.20;;;;;;;;;;6217090;23;20607;-65
2022/04/17 10:14:52;;;;;;;2.30;1.80;;;;;;;;;;6216171;23;20600;-66
2022/04/17 10:17:19;;;;;;;4.13;2.90;;;;;;;;;;6216648;23;20177;-66
2022/04/17 10:19:46;;;;;;;4.25;2.88;;;;;;;;;;6216270;23;20145;-65
2022/04/17 10:22:12;;;;;;;3.00;1.88;;;;;;;;;;6216198;23;20488;-65
2022/04/17 10:24:38;;;;;;;2.90;2.10;;;;;;;;;;6216371;23;20168;-65
2022/04/17 10:27:05;;;;;;;3.83;2.60;;;;;;;;;;6215941;23;20156;-65
2022/04/17 10:29:35;;;;;;;3.17;2.50;;;;;;;;;;6216161;23;20541;-65
2022/04/17 10:32:16;;;;;;;3.70;2.75;;;;;;;;;;6216563;23;20140;-65
2022/04/17 10:34:42;;;;;;;3.05;2.15;;;;;;;;;;6216962;23;20239;-65
2022/04/17 10:37:16;;;;;;;5.55;2.75;;;;;;;;;;6216849;23;20148;-65
2022/04/17 10:39:46;;;;;;;3.80;2.58;;;;;;;;;;6216673;23;20219;-65
2022/04/17 10:42:12;;;;;;;3.40;2.60;;;;;;;;;;6217363;23;20152;-65
2022/04/17 10:44:41;;;;;;;3.42;2.63;;;;;;;;;;6219080;23;20490;-65
2022/04/17 10:47:07;;;;;;;6.05;3.00;;;;;;;;;;6219407;23;20141;-65
2022/04/17 10:49:33;;;;;;;4.35;2.80;;;;;;;;;;6219135;23;20202;-64
2022/04/17 10:51:59;;;;;;;4.28;2.50;;;;;;;;;;6219176;23;20140;-65
2022/04/17 10:54:26;;;;;;;2.75;2.08;;;;;;;;;;6217985;23;20141;-65
2022/04/17 10:56:55;;;;;;;3.72;2.10;;;;;;;;;;6218531;23;20167;-65
2022/04/17 10:59:22;;;;;;;3.53;2.17;;;;;;;;;;6217892;23;20168;-66
2022/04/17 11:02:14;;;;;;;3.83;2.40;;;;;;;;;;6218683;23;20202;-65
2022/04/17 11:04:55;;;;;;;3.42;2.40;;;;;;;;;;6214804;23;20215;-66
2022/04/17 11:07:27;;;;;;;3.70;2.58;;;;;;;;;;6218090;23;20141;-65
2022/04/17 11:10:06;;;;;;;4.38;3.22;;;;;;;;;;6217739;23;20569;-64
2022/04/17 11:12:45;;;;;;;2.45;1.95;;;;;;;;;;6219103;23;20223;-65
2022/04/17 11:15:11;;;;;;;2.72;1.60;;;;;;;;;;6192873;23;20224;-65
2022/04/17 11:17:38;;;;;;;2.78;1.80;;;;;;;;;;6217941;23;20187;-65
2022/04/17 11:20:06;;;;;;;4.47;2.28;;;;;;;;;;6217702;23;20145;-65
2022/04/17 11:22:33;;;;;;;4.55;2.30;;;;;;;;;;6218547;23;20456;-65
2022/04/17 11:25:02;;;;;;;2.10;1.50;;;;;;;;;;6217517;23;20148;-65
2022/04/17 11:27:41;;;;;;;2.92;2.00;;;;;;;;;;6217468;23;20138;-66
2022/04/17 11:30:08;;;;;;;2.63;2.17;;;;;;;;;;6218138;23;20129;-65
2022/04/17 11:32:34;;;;;;;3.38;2.20;;;;;;;;;;6217784;23;20553;-65
2022/04/17 11:35:04;;;;;;;3.45;2.22;;;;;;;;;;6217592;23;20200;-65
2022/04/17 11:37:30;;;;;;;2.38;1.90;;;;;;;;;;6217624;23;20199;-65
2022/04/17 11:40:00;;;;;;;3.58;2.38;;;;;;;;;;6217518;23;20542;-65
2022/04/17 11:42:29;;;;;;;2.78;1.85;;;;;;;;;;6217364;23;20134;-65
2022/04/17 11:45:00;;;;;;;3.28;1.98;;;;;;;;;;6217421;23;20484;-66
2022/04/17 11:47:26;;;;;;;2.15;1.80;;;;;;;;;;6217852;23;20137;-65
2022/04/17 11:49:52;;;;;;;1.88;1.67;;;;;;;;;;6217456;23;20141;-65
2022/04/17 11:52:19;;;;;;;2.20;1.77;;;;;;;;;;6217528;23;20605;-65
2022/04/17 11:54:45;;;;;;;2.40;1.70;;;;;;;;;;6217276;23;20645;-65
2022/04/17 11:57:12;;;;;;;3.78;2.10;;;;;;;;;;6217465;23;20160;-65
2022/04/17 11:59:44;;;;;;;3.05;1.73;;;;;;;;;;6217910;23;20145;-65
2022/04/17 12:02:14;;;;;;;2.05;1.75;;;;;;;;;;6217533;23;20156;-65
2022/04/17 12:04:40;;;;;;;2.47;1.75;;;;;;;;;;6217318;23;20201;-65
2022/04/17 12:07:06;;;;;;;2.67;1.85;;;;;;;;;;6217457;23;20599;-65
2022/04/17 12:09:32;;;;;;;2.42;1.80;;;;;;;;;;6217048;23;20137;-65
2022/04/17 12:11:58;;;;;;;3.28;2.20;;;;;;;;;;6217438;23;20593;-65
2022/04/17 12:14:28;;;;;;;1.77;1.50;;;;;;;;;;6217205;23;20565;-65
2022/04/17 12:16:54;;;;;;;2.13;1.42;;;;;;;;;;6217210;23;20146;-65
2022/04/17 12:19:20;;;;;;;3.92;2.10;;;;;;;;;;6190747;23;20635;-65
2022/04/17 12:21:46;;;;;;;2.85;2.03;;;;;;;;;;6217547;23;20149;-65
2022/04/17 12:24:12;;;;;;;2.60;1.48;;;;;;;;;;6217061;23;20226;-65
2022/04/17 12:26:38;;;;;;;2.03;1.27;;;;;;;;;;6217179;23;20140;-65
2022/04/17 12:29:05;;;;;;;2.35;1.50;;;;;;;;;;6217158;23;20218;-65
2022/04/17 12:31:31;;;;;;;3.47;2.00;;;;;;;;;;6217021;23;20466;-65
2022/04/17 12:34:20;;;;;;;3.90;2.13;;;;;;;;;;6217385;23;20140;-65
2022/04/17 12:36:46;;;;;;;4.70;2.67;;;;;;;;;;6217134;23;20149;-65
2022/04/17 12:39:12;;;;;;;2.53;1.77;;;;;;;;;;6216989;23;20251;-65
2022/04/17 12:41:42;;;;;;;3.35;1.98;;;;;;;;;;6216942;23;20168;-65
2022/04/17 12:44:08;;;;;;;3.40;2.40;;;;;;;;;;6216911;23;20176;-65
2022/04/17 12:46:35;;;;;;;3.08;2.17;;;;;;;;;;6216931;23;20141;-64
2022/04/17 12:49:11;;;;;;;3.75;2.53;;;;;;;;;;6217175;23;20546;-64
2022/04/17 12:51:38;;;;;;;3.92;2.55;;;;;;;;;;6217671;23;20136;-64
2022/04/17 12:54:07;;;;;;;3.80;2.58;;;;;;;;;;6218323;23;20569;-64
2022/04/17 12:56:33;;;;;;;3.95;3.25;;;;;;;;;;6218588;23;20171;-64
2022/04/17 12:58:59;;;;;;;4.05;2.78;;;;;;;;;;6219288;23;20444;-64
2022/04/17 13:01:26;;;;;;;4.47;2.75;;;;;;;;;;6220295;23;20156;-64
2022/04/17 13:03:53;;;;;;;4.55;3.20;;;;;;;;;;6221597;23;20207;-64
2022/04/17 13:06:23;;;;;;;4.05;2.97;;;;;;;;;;6195457;23;20437;-64
2022/04/17 13:09:05;;;;;;;3.75;2.80;;;;;;;;;;6217292;23;20468;-63
2022/04/17 13:11:35;;;;;;;3.30;2.50;;;;;;;;;;6216811;23;20163;-64
2022/04/17 13:14:04;;;;;;;3.88;2.58;;;;;;;;;;6216868;23;20145;-64
2022/04/17 13:16:31;;;;;;;5.45;3.13;;;;;;;;;;6216698;23;20174;-64
2022/04/17 13:18:57;;;;;;;4.30;2.80;;;;;;;;;;6217447;23;20446;-64
2022/04/17 13:21:23;;;;;;;4.75;2.67;;;;;;;;;;6217168;23;20140;-64
2022/04/17 13:23:49;;;;;;;4.28;2.75;;;;;;;;;;6216890;23;20169;-64
2022/04/17 13:26:15;;;;;;;4.13;2.90;;;;;;;;;;6216941;23;20166;-64
2022/04/17 13:28:41;;;;;;;5.00;2.78;;;;;;;;;;6216858;23;20137;-64
2022/04/17 13:31:07;;;;;;;3.83;2.83;;;;;;;;;;6190378;23;20149;-64
2022/04/17 13:33:34;;;;;;;3.35;2.92;;;;;;;;;;6216687;23;20184;-64
2022/04/17 13:36:00;;;;;;;4.35;2.33;;;;;;;;;;6216696;23;20572;-64
2022/04/17 13:38:27;;;;;;;3.47;2.80;;;;;;;;;;6216891;23;20149;-64
2022/04/17 13:40:53;;;;;;;4.28;2.85;;;;;;;;;;6216723;23;20176;-64
2022/04/17 13:43:21;;;;;;;3.20;2.40;;;;;;;;;;6216734;23;20491;-64
2022/04/17 13:45:47;;;;;;;4.18;2.65;;;;;;;;;;6217063;23;20141;-64
2022/04/17 13:48:13;;;;;;;4.40;2.53;;;;;;;;;;6216814;23;20145;-63
2022/04/17 13:50:39;;;;;;;4.55;2.92;;;;;;;;;;6216277;23;20141;-63
2022/04/17 13:53:06;;;;;;;6.05;2.35;;;;;;;;;;6216712;23;20565;-63
2022/04/17 13:55:32;;;;;;;3.42;2.78;;;;;;;;;;6216780;23;20157;-63
2022/04/17 13:57:58;;;;;;;3.97;2.55;;;;;;;;;;6216588;23;20141;-63
2022/04/17 14:00:24;;;;;;;3.17;2.35;;;;;;;;;;6216528;23;20454;-63
2022/04/17 14:02:50;;;;;;;3.63;2.10;;;;;;;;;;6216764;23;20177;-63
2022/04/17 14:05:16;;;;;;;3.20;2.20;;;;;;;;;;6216628;23;20149;-64
2022/04/17 14:07:42;;;;;;;6.00;2.55;;;;;;;;;;6216362;23;20177;-63
2022/04/17 14:10:08;;;;;;;3.50;2.38;;;;;;;;;;6216087;23;20161;-63
2022/04/17 14:12:38;;;;;;;5.00;2.65;;;;;;;;;;6216523;23;20144;-63
2022/04/17 14:15:05;;;;;;;3.90;2.45;;;;;;;;;;6217100;23;20172;-64
2022/04/17 14:17:31;;;;;;;4.22;2.38;;;;;;;;;;6215969;23;20216;-64
2022/04/17 14:19:57;;;;;;;4.00;2.60;;;;;;;;;;6217127;23;20520;-63
2022/04/17 14:22:26;;;;;;;3.95;2.78;;;;;;;;;;6216568;23;20160;-63
2022/04/17 14:24:52;;;;;;;3.78;2.40;;;;;;;;;;6216932;23;20206;-63
2022/04/17 14:27:19;;;;;;;3.70;2.22;;;;;;;;;;6217584;23;20145;-63
2022/04/17 14:29:45;;;;;;;4.28;2.42;;;;;;;;;;6217200;23;20202;-63
2022/04/17 14:32:11;;;;;;;3.08;2.25;;;;;;;;;;6216332;23;20149;-63
2022/04/17 14:34:38;;;;;;;3.63;2.42;;;;;;;;;;6216260;23;20203;-63
2022/04/17 14:37:04;;;;;;;3.58;2.65;;;;;;;;;;6216354;23;20156;-63
2022/04/17 14:39:30;;;;;;;4.25;2.80;;;;;;;;;;6216385;23;20160;-63
2022/04/17 14:41:56;;;;;;;2.75;2.13;;;;;;;;;;6216063;23;20145;-64
2022/04/17 14:44:22;;;;;;;3.30;2.25;;;;;;;;;;6215781;23;20168;-64
2022/04/17 14:46:48;;;;;;;3.42;2.33;;;;;;;;;;6215737;23;20283;-64
2022/04/17 14:49:13;;;;;;;2.70;1.83;;;;;;;;;;6215942;23;20144;-64
2022/04/17 14:51:40;;;;;;;3.67;1.88;;;;;;;;;;6215795;23;20141;-64
2022/04/17 14:54:10;;;;;;;3.33;1.98;;;;;;;;;;6215787;23;20210;-65